Time;durP1;ratioP1;P1;durP2;ratioP2;P2;SDS_P1;SDS_P2;PMS_P1;PMS_P2;Temp;Humidity;BMP_temperature;BMP_pressure;BME280_temperature;BME280_humidity;BME280_pressure;Samples;Min_cycle;Max_cycle;Signal;HPM_P1;HPM_P2
2021/12/15 00:02:26;;;;;;;26.03;21.10;;;10.90;73.80;;;-142.21;100.00;112049.66;5012935;28;20482;-79
2021/12/15 00:04:56;;;;;;;26.10;20.10;;;10.90;73.80;;;-142.21;100.00;112049.66;5012508;28;20458;-80
2021/12/15 00:07:27;;;;;;;27.07;20.83;;;11.00;73.80;;;-142.21;100.00;112049.66;5012613;28;20485;-80
2021/12/15 00:09:55;;;;;;;26.70;21.07;;;11.00;73.40;;;-142.21;100.00;112049.66;5012713;28;20434;-79
2021/12/15 00:12:23;;;;;;;27.50;20.50;;;11.10;73.40;;;-142.21;100.00;112049.66;5011822;28;20641;-80
2021/12/15 00:14:51;;;;;;;24.23;20.90;;;11.10;73.20;;;-142.21;100.00;112049.66;5012851;28;20450;-79
2021/12/15 00:17:23;;;;;;;23.37;19.37;;;11.10;73.20;;;-142.21;100.00;112049.66;5011761;28;20489;-79
2021/12/15 00:19:52;;;;;;;25.10;20.67;;;11.10;73.40;;;-142.21;100.00;112049.66;5012428;28;20435;-79
2021/12/15 00:22:20;;;;;;;23.77;19.57;;;11.10;73.30;;;-142.21;100.00;112049.66;5012081;28;20450;-79
2021/12/15 00:24:48;;;;;;;22.83;19.67;;;11.10;72.90;;;-142.21;100.00;112049.66;5012331;28;20454;-78
2021/12/15 00:27:15;;;;;;;27.20;20.43;;;11.10;73.40;;;-142.21;100.00;112049.66;5012089;28;20521;-79
2021/12/15 00:29:43;;;;;;;23.83;18.60;;;11.10;73.40;;;-142.21;100.00;112049.66;5003323;28;20454;-80
2021/12/15 00:32:10;;;;;;;22.87;18.63;;;11.10;73.30;;;-142.21;100.00;112049.66;5002623;28;20486;-80
2021/12/15 00:34:40;;;;;;;25.03;19.50;;;11.10;73.40;;;-142.21;100.00;112049.66;5011698;28;20488;-79
2021/12/15 00:37:08;;;;;;;27.23;22.03;;;11.10;73.50;;;-142.21;100.00;112049.66;5014973;28;20423;-79
2021/12/15 00:39:37;;;;;;;24.13;21.53;;;11.10;73.40;;;-142.21;100.00;112049.66;5016187;28;20866;-80
2021/12/15 00:42:05;;;;;;;27.90;21.60;;;11.10;73.30;;;-142.21;100.00;112049.66;4996351;28;20538;-79
2021/12/15 00:44:32;;;;;;;26.37;19.93;;;11.10;73.30;;;-142.21;100.00;112049.66;4996472;28;20855;-80
2021/12/15 00:47:00;;;;;;;26.47;19.20;;;11.00;73.30;;;-142.21;100.00;112049.66;4996348;28;20526;-79
2021/12/15 00:49:27;;;;;;;31.17;23.83;;;11.00;73.20;;;-142.21;100.00;112049.66;4995534;28;20990;-80
2021/12/15 00:51:55;;;;;;;26.77;20.73;;;11.00;73.30;;;-142.21;100.00;112049.66;4996512;28;20545;-80
2021/12/15 00:54:23;;;;;;;23.20;19.07;;;11.00;73.30;;;-142.21;100.00;112049.66;4996314;28;20487;-80
2021/12/15 00:56:53;;;;;;;21.17;18.67;;;11.00;73.40;;;-142.21;100.00;112049.66;4996101;28;20450;-79
2021/12/15 00:59:22;;;;;;;28.00;21.30;;;11.00;73.40;;;-142.21;100.00;112049.66;4996338;28;20490;-80
2021/12/15 01:01:51;;;;;;;25.97;20.57;;;11.00;73.40;;;-142.21;100.00;112049.66;5014201;28;20524;-80
2021/12/15 01:04:22;;;;;;;25.33;20.10;;;11.00;73.50;;;-142.21;100.00;112049.66;5015528;28;20489;-78
2021/12/15 01:06:54;;;;;;;24.87;19.03;;;11.00;73.40;;;-142.21;100.00;112049.66;5015564;28;20496;-79
2021/12/15 01:09:27;;;;;;;23.93;18.67;;;11.00;73.40;;;-142.21;100.00;112049.66;4998121;28;20492;-78
2021/12/15 01:12:12;;;;;;;29.27;21.17;;;11.00;73.60;;;-142.21;100.00;112049.66;5015460;28;20438;-79
2021/12/15 01:20:34;;;;;;;22.27;18.63;;;10.90;73.90;;;-142.21;100.00;112049.66;4995980;28;20473;-78
2021/12/15 01:23:08;;;;;;;24.93;19.90;;;10.90;74.10;;;-142.21;100.00;112049.66;4995219;28;21020;-78
2021/12/15 01:25:42;;;;;;;21.63;18.93;;;10.90;73.90;;;-142.21;100.00;112049.66;5002140;28;20449;-78
2021/12/15 01:28:11;;;;;;;26.60;19.97;;;11.00;73.70;;;-142.21;100.00;112049.66;5015118;28;20477;-78
2021/12/15 01:30:44;;;;;;;26.17;18.47;;;11.00;73.70;;;-142.21;100.00;112049.66;5015268;28;20525;-79
2021/12/15 01:33:11;;;;;;;25.47;20.37;;;11.00;74.00;;;-142.21;100.00;112049.66;5014925;28;20517;-79
2021/12/15 01:35:43;;;;;;;24.30;20.47;;;11.00;74.10;;;-142.21;100.00;112049.66;5015742;28;20454;-79
2021/12/15 01:38:11;;;;;;;25.80;20.60;;;11.00;74.10;;;-142.21;100.00;112049.66;5001537;28;20445;-79
2021/12/15 01:40:44;;;;;;;24.50;19.73;;;11.00;73.90;;;-142.21;100.00;112049.66;4995567;28;20505;-78
2021/12/15 01:43:21;;;;;;;22.20;18.07;;;11.00;74.40;;;-142.21;100.00;112049.66;4994709;28;20625;-78
2021/12/15 01:48:39;;;;;;;25.47;18.83;;;11.00;73.40;;;-142.21;100.00;112049.66;4994724;28;20505;-78
2021/12/15 01:51:11;;;;;;;25.37;19.27;;;11.00;73.40;;;-142.21;100.00;112049.66;4995713;28;20513;-80
2021/12/15 01:53:39;;;;;;;24.77;19.07;;;11.00;73.40;;;-142.21;100.00;112049.66;5012067;28;20438;-78
2021/12/15 01:56:08;;;;;;;25.03;20.03;;;11.00;73.40;;;-142.21;100.00;112049.66;5015454;28;20593;-78
2021/12/15 01:58:36;;;;;;;25.73;20.37;;;11.10;73.50;;;-142.21;100.00;112049.66;5014635;28;20455;-76
2021/12/15 02:01:09;;;;;;;26.43;20.33;;;11.10;73.40;;;-142.21;100.00;112049.66;4997822;28;20561;-80
2021/12/15 02:03:38;;;;;;;25.27;19.37;;;11.10;73.50;;;-142.21;100.00;112049.66;4960394;28;20531;-79
2021/12/15 02:06:08;;;;;;;24.97;19.37;;;11.10;73.50;;;-142.21;100.00;112049.66;4995061;28;20526;-79
2021/12/15 02:08:37;;;;;;;23.47;18.30;;;11.00;73.60;;;-142.21;100.00;112049.66;4994790;28;20451;-79
2021/12/15 02:11:05;;;;;;;21.13;17.13;;;11.00;73.90;;;-142.21;100.00;112049.66;4995221;28;20458;-79
2021/12/15 02:13:33;;;;;;;22.23;17.10;;;11.00;73.80;;;-142.21;100.00;112049.66;4994559;28;20459;-80
2021/12/15 02:16:06;;;;;;;21.13;16.87;;;11.00;73.50;;;-142.21;100.00;112049.66;4995347;28;20538;-80
2021/12/15 02:18:37;;;;;;;20.87;16.23;;;11.00;73.40;;;-142.21;100.00;112049.66;4994516;28;20522;-79
2021/12/15 02:21:11;;;;;;;22.30;18.30;;;11.00;73.60;;;-142.21;100.00;112049.66;4988734;28;20455;-80
2021/12/15 02:23:44;;;;;;;22.93;18.63;;;10.90;74.00;;;-142.21;100.00;112049.66;5013853;28;20434;-80
2021/12/15 02:26:18;;;;;;;22.97;18.40;;;10.90;74.50;;;-142.21;100.00;112049.66;5014549;28;20528;-79
2021/12/15 02:28:50;;;;;;;22.50;17.83;;;10.90;74.50;;;-142.21;100.00;112049.66;5013945;28;20485;-78
2021/12/15 02:31:33;;;;;;;21.70;17.33;;;10.90;74.10;;;-142.21;100.00;112049.66;5014002;28;20435;-80
2021/12/15 02:34:09;;;;;;;22.67;18.03;;;11.00;73.90;;;-142.21;100.00;112049.66;5013650;28;20434;-79
2021/12/15 02:39:23;;;;;;;21.67;18.53;;;11.00;73.60;;;-142.21;100.00;112049.66;5014319;28;20414;-79
2021/12/15 02:41:50;;;;;;;23.33;18.87;;;11.00;73.70;;;-142.21;100.00;112049.66;5013117;28;20671;-80
2021/12/15 02:44:22;;;;;;;24.00;19.07;;;10.90;73.80;;;-142.21;100.00;112049.66;5013810;28;20454;-79
2021/12/15 02:46:51;;;;;;;24.47;19.87;;;10.90;74.20;;;-142.21;100.00;112049.66;5013012;28;20978;-79
2021/12/15 02:49:26;;;;;;;24.30;18.70;;;10.90;73.80;;;-142.21;100.00;112049.66;5014010;28;20549;-79
2021/12/15 02:51:59;;;;;;;24.53;19.57;;;11.00;73.80;;;-142.21;100.00;112049.66;5013351;28;20508;-79
2021/12/15 02:54:28;;;;;;;22.03;18.17;;;11.00;73.80;;;-142.21;100.00;112049.66;5014229;28;20481;-80
2021/12/15 02:57:03;;;;;;;23.20;19.37;;;11.00;74.20;;;-142.21;100.00;112049.66;5013315;28;20534;-79
2021/12/15 02:59:32;;;;;;;23.07;19.23;;;11.00;73.80;;;-142.21;100.00;112049.66;5012980;28;20542;-80
2021/12/15 03:02:06;;;;;;;21.27;18.53;;;11.00;73.80;;;-142.21;100.00;112049.66;5013154;28;20454;-79
2021/12/15 03:04:41;;;;;;;24.73;19.87;;;10.90;74.00;;;-142.21;100.00;112049.66;5013572;28;20910;-79
2021/12/15 03:07:16;;;;;;;25.07;20.27;;;11.00;73.80;;;-142.21;100.00;112049.66;5012898;28;20480;-79
2021/12/15 03:15:29;;;;;;;27.90;20.90;;;11.00;73.20;;;-142.21;100.00;112049.66;5012752;28;20413;-80
2021/12/15 03:18:00;;;;;;;21.47;18.73;;;11.10;73.50;;;-142.21;100.00;112049.66;5013434;28;20426;-79
2021/12/15 03:20:30;;;;;;;22.40;17.90;;;11.10;73.50;;;-142.21;100.00;112049.66;5013155;28;20457;-78
2021/12/15 03:22:59;;;;;;;22.87;17.57;;;11.00;73.40;;;-142.21;100.00;112049.66;5013835;28;20442;-80
2021/12/15 03:25:30;;;;;;;21.47;17.63;;;11.00;73.50;;;-142.21;100.00;112049.66;5012964;28;20454;-78
2021/12/15 03:34:08;;;;;;;20.83;17.23;;;11.00;73.70;;;-142.21;100.00;112049.66;4965922;28;20434;-78
2021/12/15 03:37:07;;;;;;;22.23;18.17;;;11.00;73.30;;;-142.21;100.00;112049.66;5012591;28;20438;-79
2021/12/15 03:39:42;;;;;;;26.57;19.50;;;11.00;73.40;;;-142.21;100.00;112049.66;5012420;28;20461;-80
2021/12/15 03:42:16;;;;;;;26.60;19.63;;;10.90;73.90;;;-142.21;100.00;112049.66;5012892;28;20485;-80
2021/12/15 03:44:46;;;;;;;27.17;17.83;;;10.90;73.80;;;-142.21;100.00;112049.66;5012116;28;20442;-79
2021/12/15 03:47:19;;;;;;;23.43;17.77;;;10.90;73.90;;;-142.21;100.00;112049.66;5012749;28;20568;-78
2021/12/15 03:49:47;;;;;;;26.53;18.93;;;10.90;74.00;;;-142.21;100.00;112049.66;4994021;28;20447;-80
2021/12/15 03:52:15;;;;;;;29.20;20.80;;;10.90;74.10;;;-142.21;100.00;112049.66;4993563;28;20459;-79
2021/12/15 03:54:47;;;;;;;30.37;22.20;;;10.80;74.40;;;-142.21;100.00;112049.66;4992523;28;20479;-80
2021/12/15 03:57:16;;;;;;;30.33;20.63;;;10.80;74.80;;;-142.21;100.00;112049.66;4993233;28;20931;-79
2021/12/15 03:59:44;;;;;;;26.70;19.20;;;10.80;74.30;;;-142.21;100.00;112049.66;4992417;28;20779;-80
2021/12/15 04:02:15;;;;;;;27.53;20.13;;;10.90;74.00;;;-142.21;100.00;112049.66;4992877;28;20454;-79
2021/12/15 04:04:44;;;;;;;24.60;18.83;;;10.90;73.90;;;-142.21;100.00;112049.66;4993654;28;20431;-80
2021/12/15 04:07:13;;;;;;;25.50;19.60;;;10.90;74.10;;;-142.21;100.00;112049.66;4992981;28;20529;-79
2021/12/15 04:09:41;;;;;;;26.10;18.93;;;10.90;74.40;;;-142.21;100.00;112049.66;4997955;28;20529;-78
2021/12/15 04:12:11;;;;;;;25.90;19.10;;;10.90;74.50;;;-142.21;100.00;112049.66;5012265;28;20485;-79
2021/12/15 04:14:45;;;;;;;23.47;18.60;;;11.00;74.40;;;-142.21;100.00;112049.66;5012806;28;20453;-80
2021/12/15 04:17:26;;;;;;;23.80;18.70;;;10.90;74.20;;;-142.21;100.00;112049.66;5012060;28;20438;-79
2021/12/15 04:19:57;;;;;;;25.10;18.87;;;11.00;74.30;;;-142.21;100.00;112049.66;5012758;28;20438;-80
2021/12/15 04:22:26;;;;;;;21.47;17.37;;;10.90;74.50;;;-142.21;100.00;112049.66;5012325;28;20528;-79
2021/12/15 04:24:54;;;;;;;24.47;18.67;;;10.90;74.30;;;-142.21;100.00;112049.66;5012305;28;20545;-79
2021/12/15 04:27:23;;;;;;;25.43;19.03;;;11.00;74.10;;;-142.21;100.00;112049.66;5011435;28;20490;-80
2021/12/15 04:29:52;;;;;;;23.43;17.83;;;11.00;74.00;;;-142.21;100.00;112049.66;5012558;28;20470;-78
2021/12/15 04:32:29;;;;;;;21.67;16.77;;;11.00;74.00;;;-142.21;100.00;112049.66;5011549;28;20450;-79
2021/12/15 04:34:57;;;;;;;22.60;17.73;;;10.90;74.40;;;-142.21;100.00;112049.66;5012402;28;20465;-79
2021/12/15 04:37:25;;;;;;;20.73;17.67;;;11.00;74.20;;;-142.21;100.00;112049.66;5011895;28;20516;-79
2021/12/15 04:39:52;;;;;;;21.13;16.23;;;11.00;74.60;;;-142.21;100.00;112049.66;5012239;28;20430;-78
2021/12/15 04:42:23;;;;;;;23.73;17.83;;;11.00;73.90;;;-142.21;100.00;112049.66;5011877;28;21080;-78
2021/12/15 04:44:54;;;;;;;20.73;16.73;;;10.90;74.10;;;-142.21;100.00;112049.66;5012296;28;20950;-78
2021/12/15 04:47:22;;;;;;;22.37;17.27;;;10.90;74.40;;;-142.21;100.00;112049.66;5012213;28;20549;-78
2021/12/15 04:49:53;;;;;;;21.90;16.80;;;10.80;74.40;;;-142.21;100.00;112049.66;5011915;28;20533;-78
2021/12/15 04:52:24;;;;;;;22.30;16.50;;;10.90;74.50;;;-142.21;100.00;112049.66;5012564;28;20534;-80
2021/12/15 04:54:53;;;;;;;23.80;18.40;;;10.90;74.40;;;-142.21;100.00;112049.66;5011608;28;20986;-78
2021/12/15 04:57:21;;;;;;;19.47;15.63;;;10.90;74.10;;;-142.21;100.00;112049.66;5012219;28;20448;-80
2021/12/15 04:59:49;;;;;;;22.93;17.27;;;10.90;74.00;;;-142.21;100.00;112049.66;5011778;28;20446;-78
2021/12/15 05:02:20;;;;;;;23.37;17.83;;;10.90;74.00;;;-142.21;100.00;112049.66;5012042;28;20454;-80
2021/12/15 05:04:49;;;;;;;24.10;18.10;;;10.90;73.80;;;-142.21;100.00;112049.66;5011699;28;20450;-78
2021/12/15 05:07:18;;;;;;;24.33;18.07;;;10.90;73.70;;;-142.21;100.00;112049.66;5011849;28;20489;-78
2021/12/15 05:09:49;;;;;;;26.40;18.83;;;11.00;73.80;;;-142.21;100.00;112049.66;5011832;28;20452;-78
2021/12/15 05:12:18;;;;;;;23.93;17.20;;;11.00;73.80;;;-142.21;100.00;112049.66;5012244;28;20561;-77
2021/12/15 05:14:46;;;;;;;19.07;16.03;;;11.00;73.70;;;-142.21;100.00;112049.66;5012155;28;20529;-80
2021/12/15 05:17:13;;;;;;;26.10;18.60;;;11.00;73.70;;;-142.21;100.00;112049.66;5011757;28;20504;-80
2021/12/15 05:19:43;;;;;;;21.03;16.33;;;11.00;73.80;;;-142.21;100.00;112049.66;5011813;28;20929;-79
2021/12/15 05:22:10;;;;;;;20.80;15.13;;;10.90;74.00;;;-142.21;100.00;112049.66;5012100;28;20489;-79
2021/12/15 05:24:38;;;;;;;24.63;16.87;;;10.90;73.80;;;-142.21;100.00;112049.66;5015648;28;20950;-77
2021/12/15 05:27:10;;;;;;;20.27;16.43;;;11.00;73.70;;;-142.21;100.00;112049.66;5014974;28;20592;-78
2021/12/15 05:29:38;;;;;;;24.60;17.97;;;11.00;74.70;;;-142.21;100.00;112049.66;4996072;28;20470;-79
2021/12/15 05:32:08;;;;;;;24.07;17.23;;;11.00;74.40;;;-142.21;100.00;112049.66;4995792;28;20490;-79
2021/12/15 05:34:37;;;;;;;21.77;15.93;;;10.90;74.10;;;-142.21;100.00;112049.66;4995929;28;20453;-78
2021/12/15 05:37:07;;;;;;;18.43;15.20;;;10.90;74.30;;;-142.21;100.00;112049.66;4995930;28;20783;-80
2021/12/15 05:39:35;;;;;;;18.53;14.60;;;10.90;74.20;;;-142.21;100.00;112049.66;4995241;28;20486;-79
2021/12/15 05:42:03;;;;;;;25.00;17.23;;;11.00;74.00;;;-142.21;100.00;112049.66;4995662;28;20482;-78
2021/12/15 05:44:30;;;;;;;21.73;16.63;;;11.00;73.80;;;-142.21;100.00;112049.66;4994904;28;20509;-80
2021/12/15 05:47:01;;;;;;;20.67;15.87;;;10.90;74.10;;;-142.21;100.00;112049.66;5004096;28;20489;-79
2021/12/15 05:49:28;;;;;;;21.40;16.50;;;10.90;74.10;;;-142.21;100.00;112049.66;5014528;28;20469;-78
2021/12/15 05:51:56;;;;;;;26.93;17.97;;;11.00;74.00;;;-142.21;100.00;112049.66;4997771;28;20489;-78
2021/12/15 05:54:27;;;;;;;21.87;16.90;;;11.00;74.00;;;-142.21;100.00;112049.66;5015070;28;20497;-80
2021/12/15 05:56:55;;;;;;;24.10;17.20;;;10.90;74.10;;;-142.21;100.00;112049.66;5015194;28;20960;-79
2021/12/15 05:59:23;;;;;;;22.03;16.80;;;10.90;74.10;;;-142.21;100.00;112049.66;5014482;28;20454;-79
2021/12/15 06:01:54;;;;;;;25.50;18.47;;;10.90;74.50;;;-142.21;100.00;112049.66;5014480;28;20480;-80
2021/12/15 06:04:21;;;;;;;25.23;16.63;;;10.90;74.50;;;-142.21;100.00;112049.66;5014626;28;20430;-79
2021/12/15 06:06:49;;;;;;;23.23;16.47;;;10.90;74.20;;;-142.21;100.00;112049.66;5014383;28;20525;-77
2021/12/15 06:09:17;;;;;;;24.43;18.20;;;11.00;74.00;;;-142.21;100.00;112049.66;5014699;28;20541;-78
2021/12/15 06:11:48;;;;;;;24.33;17.60;;;11.00;73.90;;;-142.21;100.00;112049.66;5014426;28;20454;-78
2021/12/15 06:14:23;;;;;;;24.00;17.57;;;10.90;74.20;;;-142.21;100.00;112049.66;5014755;28;20442;-78
2021/12/15 06:16:50;;;;;;;24.10;17.47;;;10.90;74.50;;;-142.21;100.00;112049.66;4994754;28;20440;-78
2021/12/15 06:19:18;;;;;;;23.07;17.17;;;10.90;74.80;;;-142.21;100.00;112049.66;4995119;28;20473;-78
2021/12/15 06:21:46;;;;;;;26.50;19.30;;;10.90;75.30;;;-142.21;100.00;112049.66;4995095;28;20491;-78
2021/12/15 06:24:13;;;;;;;24.17;17.63;;;10.80;75.00;;;-142.21;100.00;112049.66;4994449;28;20537;-76
2021/12/15 06:26:41;;;;;;;25.37;18.43;;;10.80;74.90;;;-142.21;100.00;112049.66;4994697;28;20530;-76
2021/12/15 06:29:10;;;;;;;24.30;20.20;;;10.90;74.90;;;-142.21;100.00;112049.66;4994277;28;20920;-78
2021/12/15 06:31:39;;;;;;;25.43;19.63;;;10.90;74.50;;;-142.21;100.00;112049.66;4994484;28;20474;-78
2021/12/15 06:34:07;;;;;;;24.67;18.37;;;11.00;74.40;;;-142.21;100.00;112049.66;4994271;28;20443;-79
2021/12/15 06:36:34;;;;;;;24.83;19.70;;;10.90;74.50;;;-142.21;100.00;112049.66;4994617;28;20494;-80
2021/12/15 06:39:06;;;;;;;21.43;17.77;;;11.00;74.40;;;-142.21;100.00;112049.66;4994264;28;20949;-79
2021/12/15 06:41:34;;;;;;;22.67;18.30;;;11.00;74.30;;;-142.21;100.00;112049.66;4994382;28;20507;-80
2021/12/15 06:44:01;;;;;;;27.40;18.57;;;11.00;73.80;;;-142.21;100.00;112049.66;4994392;28;20534;-79
2021/12/15 06:47:02;;;;;;;22.57;17.23;;;11.00;73.80;;;-142.21;100.00;112049.66;4993716;28;20442;-79
2021/12/15 07:00:35;;;;;;;22.43;18.23;;;10.90;74.20;;;-142.21;100.00;112049.66;4993715;28;20427;-79
2021/12/15 07:03:05;;;;;;;24.83;18.73;;;10.90;74.40;;;-142.21;100.00;112049.66;4993925;28;20466;-80
2021/12/15 07:05:34;;;;;;;24.67;19.50;;;10.90;74.50;;;-142.21;100.00;112049.66;4999216;28;20872;-80
2021/12/15 07:08:05;;;;;;;24.70;19.80;;;10.90;74.70;;;-142.21;100.00;112049.66;5013046;28;20522;-79
2021/12/15 07:10:38;;;;;;;24.67;18.27;;;10.90;74.90;;;-142.21;100.00;112049.66;5013689;28;20473;-79
2021/12/15 07:13:07;;;;;;;27.13;20.30;;;10.90;74.80;;;-142.21;100.00;112049.66;4979380;28;20456;-79
2021/12/15 07:15:36;;;;;;;21.77;17.33;;;10.90;75.00;;;-142.21;100.00;112049.66;5013447;28;21008;-78
2021/12/15 07:18:11;;;;;;;21.53;17.83;;;10.90;74.50;;;-142.21;100.00;112049.66;5013597;28;20525;-78
2021/12/15 07:20:42;;;;;;;23.33;17.83;;;10.90;74.60;;;-142.21;100.00;112049.66;5013679;28;20438;-78
2021/12/15 07:23:13;;;;;;;23.23;17.90;;;11.00;74.60;;;-142.21;100.00;112049.66;5013192;28;20446;-78
2021/12/15 07:25:46;;;;;;;21.93;17.13;;;10.90;74.60;;;-142.21;100.00;112049.66;5013270;28;20533;-79
2021/12/15 07:28:15;;;;;;;23.00;17.73;;;10.90;74.50;;;-142.21;100.00;112049.66;4980540;28;20525;-78
2021/12/15 07:30:43;;;;;;;19.80;16.73;;;11.00;74.40;;;-142.21;100.00;112049.66;5013367;28;20482;-77
2021/12/15 07:33:13;;;;;;;24.37;18.93;;;11.00;74.30;;;-142.21;100.00;112049.66;5012771;28;20450;-77
2021/12/15 07:35:42;;;;;;;23.27;17.33;;;11.00;74.60;;;-142.21;100.00;112049.66;5013178;28;20481;-78
2021/12/15 07:38:10;;;;;;;21.53;16.90;;;11.00;74.30;;;-142.21;100.00;112049.66;5012557;28;20493;-77
2021/12/15 07:40:40;;;;;;;23.83;18.20;;;11.00;74.20;;;-142.21;100.00;112049.66;5012847;28;20934;-77
2021/12/15 07:43:14;;;;;;;24.13;17.73;;;11.00;74.10;;;-142.21;100.00;112049.66;5012225;28;21124;-78
2021/12/15 07:45:45;;;;;;;27.20;19.80;;;11.00;74.40;;;-142.21;100.00;112049.66;5012269;28;20538;-78
2021/12/15 07:48:16;;;;;;;24.00;18.63;;;11.00;74.60;;;-142.21;100.00;112049.66;5012504;28;20474;-80
2021/12/15 07:50:49;;;;;;;23.87;18.47;;;11.10;74.40;;;-142.21;100.00;112049.66;4993197;28;20435;-79
2021/12/15 07:53:19;;;;;;;27.17;19.70;;;11.10;74.40;;;-142.21;100.00;112049.66;4993033;28;20482;-78
2021/12/15 07:55:48;;;;;;;26.20;19.23;;;11.10;74.40;;;-142.21;100.00;112049.66;5002835;28;20879;-76
2021/12/15 07:58:18;;;;;;;24.33;18.60;;;11.10;74.60;;;-142.21;100.00;112049.66;5002796;28;20537;-75
2021/12/15 08:00:48;;;;;;;25.13;18.87;;;11.10;74.70;;;-142.21;100.00;112049.66;5013305;28;20842;-75
2021/12/15 08:03:18;;;;;;;25.80;19.77;;;11.10;74.70;;;-142.21;100.00;112049.66;5010425;28;20994;-75
2021/12/15 08:05:49;;;;;;;26.13;19.17;;;11.20;74.50;;;-142.21;100.00;112049.66;4996844;28;20528;-76
2021/12/15 08:08:17;;;;;;;22.30;18.17;;;11.20;74.20;;;-142.21;100.00;112049.66;4993784;28;20510;-76
2021/12/15 08:10:46;;;;;;;22.93;17.17;;;11.20;74.00;;;-142.21;100.00;112049.66;4992616;28;20457;-76
2021/12/15 08:13:16;;;;;;;24.00;18.77;;;11.20;74.20;;;-142.21;100.00;112049.66;4993246;28;20451;-75
2021/12/15 08:15:44;;;;;;;24.93;18.90;;;11.20;74.20;;;-142.21;100.00;112049.66;4996305;28;20528;-76
2021/12/15 08:18:12;;;;;;;27.67;19.37;;;11.20;74.10;;;-142.21;100.00;112049.66;5012798;28;20493;-74
2021/12/15 08:20:41;;;;;;;27.07;20.37;;;11.30;74.10;;;-142.21;100.00;112049.66;4995860;28;20509;-76
2021/12/15 08:23:09;;;;;;;28.13;20.13;;;11.30;73.50;;;-142.21;100.00;112049.66;5012604;28;20953;-76
2021/12/15 08:25:39;;;;;;;25.47;18.87;;;11.30;73.60;;;-142.21;100.00;112049.66;5012113;28;20438;-75
2021/12/15 08:28:08;;;;;;;26.93;18.47;;;11.30;73.80;;;-142.21;100.00;112049.66;5005342;28;20525;-76
2021/12/15 08:30:38;;;;;;;27.13;18.93;;;11.30;73.70;;;-142.21;100.00;112049.66;5012533;28;20501;-75
2021/12/15 08:33:10;;;;;;;27.50;19.50;;;11.30;73.70;;;-142.21;100.00;112049.66;5004814;28;20509;-75
2021/12/15 08:35:43;;;;;;;25.73;18.70;;;11.30;73.90;;;-142.21;100.00;112049.66;5012317;28;20446;-76
2021/12/15 08:38:12;;;;;;;26.00;18.73;;;11.40;73.90;;;-142.21;100.00;112049.66;5012605;28;20886;-76
2021/12/15 08:40:42;;;;;;;25.17;18.73;;;11.30;73.70;;;-142.21;100.00;112049.66;5012563;28;20489;-76
2021/12/15 08:43:10;;;;;;;26.07;19.17;;;11.40;73.80;;;-142.21;100.00;112049.66;5011568;28;20513;-76
2021/12/15 08:45:51;;;;;;;24.80;19.20;;;11.40;73.80;;;-142.21;100.00;112049.66;5012469;28;20486;-76
2021/12/15 08:48:19;;;;;;;27.30;19.67;;;11.40;73.70;;;-142.21;100.00;112049.66;5012442;28;20469;-76
2021/12/15 08:50:48;;;;;;;28.77;20.83;;;11.40;73.70;;;-142.21;100.00;112049.66;5014554;28;20477;-76
2021/12/15 08:53:16;;;;;;;27.53;20.90;;;11.40;73.80;;;-142.21;100.00;112049.66;5012230;28;20969;-75
2021/12/15 08:55:48;;;;;;;26.83;20.43;;;11.40;73.80;;;-142.21;100.00;112049.66;4979318;28;20470;-76
2021/12/15 08:58:19;;;;;;;28.53;20.07;;;11.50;73.90;;;-142.21;100.00;112049.66;5016970;28;20461;-75
2021/12/15 09:00:51;;;;;;;32.90;21.87;;;11.50;74.00;;;-142.21;100.00;112049.66;5018193;28;20506;-76
2021/12/15 09:03:20;;;;;;;31.53;21.37;;;11.60;74.00;;;-142.21;100.00;112049.66;5007598;28;20947;-76
2021/12/15 09:05:53;;;;;;;30.07;21.20;;;11.60;74.00;;;-142.21;100.00;112049.66;4999851;28;20538;-76
2021/12/15 09:08:23;;;;;;;31.93;22.20;;;11.50;73.90;;;-142.21;100.00;112049.66;5003199;28;20472;-75
2021/12/15 09:10:54;;;;;;;32.97;19.00;;;11.50;74.10;;;-142.21;100.00;112049.66;5012415;28;20835;-75
2021/12/15 09:13:22;;;;;;;33.50;21.57;;;11.50;74.10;;;-142.21;100.00;112049.66;5015066;28;20497;-75
2021/12/15 09:15:49;;;;;;;31.10;21.07;;;11.60;74.10;;;-142.21;100.00;112049.66;5016062;28;20445;-76
2021/12/15 09:18:17;;;;;;;28.70;20.90;;;11.60;73.90;;;-142.21;100.00;112049.66;5014406;28;21000;-76
2021/12/15 09:20:45;;;;;;;29.47;20.73;;;11.60;74.00;;;-142.21;100.00;112049.66;5015943;28;20810;-75
2021/12/15 09:23:19;;;;;;;32.03;21.40;;;11.50;74.20;;;-142.21;100.00;112049.66;5015884;28;20454;-76
2021/12/15 09:25:48;;;;;;;31.00;19.37;;;11.60;74.10;;;-142.21;100.00;112049.66;5017152;28;20430;-76
2021/12/15 09:28:18;;;;;;;30.00;20.90;;;11.60;74.00;;;-142.21;100.00;112049.66;5015479;28;20575;-75
2021/12/15 09:30:47;;;;;;;33.27;22.27;;;11.70;74.10;;;-142.21;100.00;112049.66;5011592;28;20473;-76
2021/12/15 09:33:20;;;;;;;27.60;19.40;;;11.70;74.10;;;-142.21;100.00;112049.66;4998094;28;20532;-73
2021/12/15 09:35:49;;;;;;;33.40;21.53;;;11.70;74.10;;;-142.21;100.00;112049.66;5014514;28;20522;-76
2021/12/15 09:38:31;;;;;;;31.80;21.47;;;11.80;74.20;;;-142.21;100.00;112049.66;5015343;28;20550;-75
2021/12/15 09:41:02;;;;;;;32.63;20.93;;;11.80;74.10;;;-142.21;100.00;112049.66;5005867;28;20455;-75
2021/12/15 09:43:31;;;;;;;29.70;20.37;;;11.90;73.80;;;-142.21;100.00;112049.66;5001132;28;20438;-76
2021/12/15 09:46:07;;;;;;;27.90;20.50;;;11.90;73.50;;;-142.21;100.00;112049.66;5010284;28;20457;-75
2021/12/15 10:05:34;;;;;;;29.30;20.13;;;12.20;73.20;;;-142.21;100.00;112049.66;4996630;28;20523;-75
2021/12/15 10:11:12;;;;;;;27.40;19.33;;;12.40;73.40;;;-142.21;100.00;112049.66;4997860;28;20427;-75
2021/12/15 10:19:24;;;;;;;24.27;18.33;;;12.50;72.50;;;-142.21;100.00;112049.66;5011692;28;20481;-77
2021/12/15 10:22:08;;;;;;;27.27;19.60;;;12.60;72.70;;;-142.21;100.00;112049.66;5014745;28;20516;-75
2021/12/15 10:24:46;;;;;;;29.83;18.50;;;12.70;73.40;;;-142.21;100.00;112049.66;5015222;28;20444;-76
2021/12/15 10:27:19;;;;;;;25.80;20.17;;;12.80;72.10;;;-142.21;100.00;112049.66;5014053;28;20933;-79
2021/12/15 10:30:12;;;;;;;25.50;18.73;;;12.90;72.20;;;-142.21;100.00;112049.66;5014396;28;20560;-80
2021/12/15 10:32:44;;;;;;;23.60;18.63;;;12.90;71.90;;;-142.21;100.00;112049.66;5014671;28;20831;-78
2021/12/15 10:35:17;;;;;;;26.90;19.67;;;13.00;72.00;;;-142.21;100.00;112049.66;5014116;28;20840;-79
2021/12/15 10:38:11;;;;;;;23.90;18.03;;;13.10;71.80;;;-142.21;100.00;112049.66;5013767;28;20469;-78
2021/12/15 10:40:42;;;;;;;26.60;19.33;;;13.20;71.70;;;-142.21;100.00;112049.66;5007820;28;20549;-79
2021/12/15 10:43:11;;;;;;;25.33;19.07;;;13.20;71.60;;;-142.21;100.00;112049.66;5013704;28;20470;-79
2021/12/15 10:45:43;;;;;;;25.40;18.10;;;13.20;71.40;;;-142.21;100.00;112049.66;5012967;28;20457;-78
2021/12/15 10:48:20;;;;;;;25.57;18.97;;;13.20;71.30;;;-142.21;100.00;112049.66;5003744;28;20450;-79
2021/12/15 10:50:48;;;;;;;23.03;18.13;;;13.20;70.80;;;-142.21;100.00;112049.66;5013522;28;20454;-77
2021/12/15 10:53:31;;;;;;;26.00;17.90;;;13.20;70.80;;;-142.21;100.00;112049.66;5013684;28;20967;-78
2021/12/15 10:56:00;;;;;;;24.13;18.17;;;13.20;71.00;;;-142.21;100.00;112049.66;4997559;28;20430;-77